Time;durP1;ratioP1;P1;durP2;ratioP2;P2;SDS_P1;SDS_P2;PMS_P1;PMS_P2;Temp;Humidity;BMP_temperature;BMP_pressure;BME280_temperature;BME280_humidity;BME280_pressure;Samples;Min_cycle;Max_cycle;Signal;HPM_P1;HPM_P2
2021/03/18 05:45:01;;;;;;;;;;;;;;;1.25;92.06;99181.45;1710515;81;20234;-35
2021/03/18 05:47:29;;;;;;;;;;;;;;;1.30;92.08;99188.44;1690313;82;20152;-39
2021/03/18 05:49:58;;;;;;;;;;;;;;;1.32;91.93;99186.75;1701428;82;20191;-40
2021/03/18 05:52:29;;;;;;;;;;;;;;;1.32;91.76;99189.33;1709919;82;20172;-34
2021/03/18 05:54:57;;;;;;;;;;;;;;;1.36;91.92;99197.13;1699313;82;20183;-34
2021/03/18 05:57:24;;;;;;;;;;;;;;;1.39;91.82;99197.17;1702846;82;20510;-36
2021/03/18 05:59:53;;;;;;;;;;;;;;;1.43;91.61;99203.71;1701404;82;20222;-35
2021/03/18 06:02:20;;;;;;;;;;;;;;;1.47;91.25;99209.81;1696573;82;20193;-40
2021/03/18 06:04:48;;;;;;;;;;;;;;;1.49;91.28;99208.98;1702580;82;20177;-40
2021/03/18 06:07:15;;;;;;;;;;;;;;;1.52;91.09;99209.06;1701042;82;20190;-40
2021/03/18 06:09:46;;;;;;;;;;;;;;;1.55;90.94;99210.81;1690887;82;20558;-40
2021/03/18 06:12:15;;;;;;;;;;;;;;;1.57;91.01;99212.59;1696544;82;20570;-34
2021/03/18 06:14:44;;;;;;;;;;;;;;;1.62;90.91;99210.50;1697220;82;20821;-40
2021/03/18 06:17:13;;;;;;;;;;;;;;;1.65;90.75;99217.02;1693963;82;20211;-40
2021/03/18 06:19:41;;;;;;;;;;;;;;;1.65;90.21;99220.46;1694689;82;20265;-40
2021/03/18 06:22:12;;;;;;;;;;;;;;;1.65;90.23;99225.63;1695340;82;20169;-40
2021/03/18 06:24:48;;;;;;;;;;;;;;;1.67;90.45;99225.64;1691627;82;20455;-35
2021/03/18 06:27:25;;;;;;;;;;;;;;;1.70;90.21;99227.00;1696599;82;20553;-34
2021/03/18 06:29:55;;;;;;;;;;;;;;;1.70;90.16;99221.42;1698205;82;20200;-34
2021/03/18 06:32:28;;;;;;;;;;;;;;;1.72;89.75;99226.59;1698126;82;20944;-42
2021/03/18 06:34:56;;;;;;;;;;;;;;;1.73;89.48;99230.91;1695671;82;20266;-35
2021/03/18 06:37:33;;;;;;;;;;;;;;;1.74;89.56;99228.38;1696884;82;20863;-40
2021/03/18 06:40:18;;;;;;;;;;;;;;;1.75;89.60;99230.53;1693015;82;20522;-40
2021/03/18 06:42:58;;;;;;;;;;;;;;;1.77;89.67;99232.71;1699651;82;20681;-35
2021/03/18 06:45:36;;;;;;;;;;;;;;;1.78;89.70;99237.02;1702337;82;20170;-40
2021/03/18 06:48:08;;;;;;;;;;;;;;;1.83;89.75;99241.84;1710304;82;20476;-40
2021/03/18 06:50:40;;;;;;;;;;;;;;;1.89;89.78;99240.66;1721530;80;20453;-35
2021/03/18 06:53:24;;;;;;;;;;;;;;;1.94;89.07;99242.91;1705518;82;20180;-35
2021/03/18 06:55:52;;;;;;;;;;;;;;;1.97;89.13;99238.21;1709300;80;20160;-40
2021/03/18 06:58:26;;;;;;;;;;;;;;;2.02;89.09;99232.30;1707432;82;20203;-40
2021/03/18 07:01:02;;;;;;;;;;;;;;;2.08;88.76;99234.97;1699942;82;20484;-40
2021/03/18 07:03:38;;;;;;;;;;;;;;;2.16;88.64;99235.12;1704409;82;20182;-39
2021/03/18 07:06:11;;;;;;;;;;;;;;;2.23;88.12;99235.67;1699027;82;20238;-34
2021/03/18 07:08:41;;;;;;;;;;;;;;;2.29;87.95;99237.48;1676574;83;20574;-34
2021/03/18 07:11:18;;;;;;;;;;;;;;;2.33;87.43;99239.28;1709025;82;20189;-40
2021/03/18 07:13:50;;;;;;;;;;;;;;;2.34;87.33;99239.72;1708169;82;20512;-40
2021/03/18 07:16:22;;;;;;;;;;;;;;;2.35;87.36;99233.28;1709811;82;20173;-40
2021/03/18 07:18:57;;;;;;;;;;;;;;;2.39;86.89;99240.23;1705821;82;20219;-35
2021/03/18 07:21:37;;;;;;;;;;;;;;;2.39;86.70;99233.78;1703501;82;20914;-40
2021/03/18 07:24:12;;;;;;;;;;;;;;;2.40;86.78;99239.39;1702725;82;20178;-41
2021/03/18 07:26:41;;;;;;;;;;;;;;;2.40;86.70;99234.23;1704487;82;20213;-36
2021/03/18 07:29:17;;;;;;;;;;;;;;;2.40;86.22;99238.09;1707242;82;20463;-37
2021/03/18 07:32:16;;;;;;;;;;;;;;;2.37;86.05;99237.17;1705835;82;20243;-35
2021/03/18 07:35:28;;;;;;;;;;;;;;;2.32;86.15;99231.06;1705002;82;20287;-40
2021/03/18 07:38:37;;;;;;;;;;;;;;;2.31;86.35;99237.08;1706525;82;20542;-35
2021/03/18 07:45:27;;;;;;;;;;;;;;;2.33;86.80;99244.02;1699458;82;20189;-40
2021/03/18 07:48:12;;;;;;;;;;;;;;;2.38;86.33;99245.39;1692958;83;20182;-40
2021/03/18 07:50:40;;;;;;;;;;;;;;;2.40;86.42;99240.69;1699928;82;20173;-40
2021/03/18 07:53:09;;;;;;;;;;;;;;;2.42;86.08;99249.73;1698574;82;20242;-40
2021/03/18 07:55:37;;;;;;;;;;;;;;;2.42;86.01;99244.57;1687222;82;20187;-41
2021/03/18 07:58:07;;;;;;;;;;;;;;;2.48;86.03;99245.95;1691742;82;20164;-34
2021/03/18 08:00:36;;;;;;;;;;;;;;;2.52;85.47;99241.30;1691398;82;20311;-34
2021/03/18 08:03:23;;;;;;;;;;;;;;;2.56;84.91;99247.39;1698953;82;20845;-34
2021/03/18 08:05:53;;;;;;;;;;;;;;;2.58;84.69;99245.69;1690474;82;20584;-34
2021/03/18 08:08:35;;;;;;;;;;;;;;;2.62;84.69;99246.19;1692073;82;20575;-39
2021/03/18 08:11:10;;;;;;;;;;;;;;;2.65;85.17;99247.08;1695111;82;20752;-40
2021/03/18 08:13:39;;;;;;;;;;;;;;;2.75;85.13;99251.97;1688650;82;20205;-35
2021/03/18 08:16:11;;;;;;;;;;;;;;;2.80;84.80;99240.00;1690475;82;20180;-35
2021/03/18 08:18:40;;;;;;;;;;;;;;;2.80;83.89;99245.16;1690548;83;20320;-36
2021/03/18 08:21:08;;;;;;;;;;;;;;;2.79;84.39;99247.30;1691056;82;20202;-41
2021/03/18 08:23:36;;;;;;;;;;;;;;;2.83;84.48;99251.65;1695160;82;20170;-41
2021/03/18 08:26:11;;;;;;;;;;;;;;;2.87;83.94;99254.73;1685394;79;20177;-35
2021/03/18 08:28:44;;;;;;;;;;;;;;;2.87;83.89;99254.73;1686558;82;20206;-34
2021/03/18 08:31:17;;;;;;;;;;;;;;;2.91;83.66;99256.52;1715983;81;20309;-36
2021/03/18 08:33:55;;;;;;;;;;;;;;;2.98;83.31;99256.60;1721988;81;20164;-39
2021/03/18 08:36:31;;;;;;;;;;;;;;;3.02;82.54;99262.27;1688436;82;20180;-42
2021/03/18 08:39:04;;;;;;;;;;;;;;;3.02;82.30;99264.42;1688690;82;20269;-39
2021/03/18 08:41:40;;;;;;;;;;;;;;;3.03;82.03;99267.45;1692819;82;20519;-34
2021/03/18 08:44:25;;;;;;;;;;;;;;;3.05;82.58;99265.74;1688971;82;20419;-34
2021/03/18 08:46:59;;;;;;;;;;;;;;;3.09;82.75;99262.36;1691928;83;20206;-36
2021/03/18 08:49:38;;;;;;;;;;;;;;;3.14;81.78;99271.05;1696275;82;20197;-36
2021/03/18 08:52:07;;;;;;;;;;;;;;;3.12;81.82;99262.39;1692827;82;20369;-35
2021/03/18 08:54:48;;;;;;;;;;;;;;;3.18;82.35;99266.34;1699300;82;20454;-35
2021/03/18 08:57:21;;;;;;;;;;;;;;;3.30;82.12;99263.05;1700437;83;20161;-36
2021/03/18 08:59:53;;;;;;;;;;;;;;;3.42;81.37;99262.33;1702063;82;20177;-35
2021/03/18 09:02:29;;;;;;;;;;;;;;;3.50;81.13;99261.16;1694807;82;20182;-33
2021/03/18 09:04:59;;;;;;;;;;;;;;;3.55;81.25;99261.66;1693030;82;20216;-40
2021/03/18 09:07:29;;;;;;;;;;;;;;;3.63;80.61;99260.01;1700430;82;20279;-41
2021/03/18 09:10:03;;;;;;;;;;;;;;;3.67;80.74;99265.67;1697123;83;20769;-35
2021/03/18 09:12:50;;;;;;;;;;;;;;;3.72;80.71;99270.91;1690133;82;20188;-46
2021/03/18 09:15:24;;;;;;;;;;;;;;;3.77;80.53;99269.63;1680923;83;20205;-40
2021/03/18 09:17:54;;;;;;;;;;;;;;;3.82;80.33;99270.13;1686866;83;20164;-40
2021/03/18 09:20:25;;;;;;;;;;;;;;;3.88;80.15;99274.07;1682209;82;20465;-40
2021/03/18 09:23:16;;;;;;;;;;;;;;;3.90;78.80;99271.09;1685551;82;20206;-40
2021/03/18 09:25:46;;;;;;;;;;;;;;;3.85;78.75;99270.17;1697686;82;20295;-41
2021/03/18 09:28:14;;;;;;;;;;;;;;;3.81;78.80;99264.52;1707578;83;20198;-41
2021/03/18 09:30:47;;;;;;;;;;;;;;;3.81;79.07;99273.57;1691590;82;20157;-39
2021/03/18 09:33:23;;;;;;;;;;;;;;;3.82;78.55;99269.27;1695367;82;20584;-39
2021/03/18 09:35:54;;;;;;;;;;;;;;;3.83;78.16;99278.36;1694720;82;20475;-37
2021/03/18 09:38:27;;;;;;;;;;;;;;;3.84;78.70;99274.05;1699828;82;20531;-39
2021/03/18 09:40:55;;;;;;;;;;;;;;;3.88;78.89;99279.25;1693636;82;20177;-34
2021/03/18 09:43:26;;;;;;;;;;;;;;;3.94;78.29;99271.98;1699069;82;20198;-35
2021/03/18 09:46:00;;;;;;;;;;;;;;;3.94;77.72;99275.46;1717665;82;20180;-34
2021/03/18 09:48:31;;;;;;;;;;;;;;;3.94;77.28;99279.34;1723915;82;20460;-40
2021/03/18 09:51:11;;;;;;;;;;;;;;;3.92;77.93;99281.45;1720481;82;20563;-34
2021/03/18 09:53:39;;;;;;;;;;;;;;;3.96;77.78;99276.77;1716804;82;20611;-34
2021/03/18 09:56:13;;;;;;;;;;;;;;;4.00;77.54;99281.09;1710091;82;20189;-34
2021/03/18 09:58:41;;;;;;;;;;;;;;;4.02;77.63;99278.55;1712716;82;20205;-34
2021/03/18 10:01:19;;;;;;;;;;;;;;;4.02;77.13;99276.82;1719901;82;20180;-34
2021/03/18 10:04:06;;;;;;;;;;;;;;;4.03;76.93;99284.16;1714012;82;20211;-39
2021/03/18 10:06:37;;;;;;;;;;;;;;;3.99;77.10;99287.13;1712921;82;20202;-40
2021/03/18 10:09:26;;;;;;;;;;;;;;;3.97;77.88;99294.02;1706467;82;20180;-35
2021/03/18 10:12:00;;;;;;;;;;;;;;;3.97;78.18;99287.55;1709740;82;20242;-35
2021/03/18 10:14:40;;;;;;;;;;;;;;;3.97;78.01;99288.84;1712933;82;20831;-40
2021/03/18 10:17:12;;;;;;;;;;;;;;;3.93;77.16;99290.95;1710265;82;20193;-34
2021/03/18 10:19:50;;;;;;;;;;;;;;;3.82;78.06;99295.14;1713472;82;20529;-40
2021/03/18 10:22:38;;;;;;;;;;;;;;;3.73;78.00;99287.73;1705489;82;20446;-40
2021/03/18 10:25:19;;;;;;;;;;;;;;;3.64;78.38;99295.80;1696994;82;20535;-41
2021/03/18 10:28:02;;;;;;;;;;;;;;;3.55;77.84;99301.74;1700856;82;20172;-39
2021/03/18 10:30:31;;;;;;;;;;;;;;;3.46;78.22;99308.08;1712106;82;20226;-34
2021/03/18 10:33:12;;;;;;;;;;;;;;;3.41;78.45;99314.48;1717280;82;20197;-35
2021/03/18 10:36:12;;;;;;;;;;;;;;;3.36;78.76;99316.16;1711784;82;20199;-35
2021/03/18 10:39:21;;;;;;;;;;;;;;;3.38;79.22;99318.34;1705867;82;20588;-40
2021/03/18 10:42:23;;;;;;;;;;;;;;;3.41;79.58;99313.61;1731059;80;20154;-39
2021/03/18 10:45:36;;;;;;;;;;;;;;;3.47;79.61;99319.73;1711500;82;20568;-36
2021/03/18 10:48:17;;;;;;;;;;;;;;;3.51;79.17;99316.77;1676465;82;20282;-40
2021/03/18 10:50:51;;;;;;;;;;;;;;;3.53;79.23;99319.37;1671930;84;20160;-40
2021/03/18 10:53:25;;;;;;;;;;;;;;;3.57;79.26;99322.44;1678546;84;20319;-36
2021/03/18 10:55:55;;;;;;;;;;;;;;;3.65;78.88;99323.00;1667961;84;20478;-41
2021/03/18 10:58:24;;;;;;;;;;;;;;;3.74;78.61;99316.63;1680569;84;20201;-35
2021/03/18 11:01:08;;;;;;;;;;;;;;;3.83;78.60;99315.87;1679078;84;20279;-40
2021/03/18 11:03:44;;;;;;;;;;;;;;;3.87;77.77;99312.88;1671430;84;20172;-35
2021/03/18 11:06:17;;;;;;;;;;;;;;;3.84;78.12;99304.67;1675815;84;20484;-36
2021/03/18 11:08:49;;;;;;;;;;;;;;;3.79;77.62;99312.80;1672435;84;20224;-40
2021/03/18 11:11:22;;;;;;;;;;;;;;;3.66;77.26;99318.27;1674851;84;20636;-40
2021/03/18 11:14:08;;;;;;;;;;;;;;;3.50;78.04;99318.91;1671703;84;20582;-41
2021/03/18 11:16:45;;;;;;;;;;;;;;;3.40;78.51;99321.80;1790578;78;20293;-39
2021/03/18 11:19:14;;;;;;;;;;;;;;;3.27;78.86;99324.20;1741015;81;20302;-36
2021/03/18 11:21:46;;;;;;;;;;;;;;;3.17;79.06;99315.02;1745793;81;20173;-40
2021/03/18 11:24:19;;;;;;;;;;;;;;;3.12;79.52;99322.27;1740750;81;20428;-41
2021/03/18 11:26:56;;;;;;;;;;;;;;;3.07;79.59;99332.52;1742641;81;20194;-35
2021/03/18 11:29:38;;;;;;;;;;;;;;;3.06;80.12;99333.80;1715160;81;20180;-35
2021/03/18 11:32:25;;;;;;;;;;;;;;;3.07;80.33;99331.23;1745926;81;20300;-35
2021/03/18 11:35:07;;;;;;;;;;;;;;;3.10;80.44;99333.02;1740200;81;20224;-36
2021/03/18 11:37:37;;;;;;;;;;;;;;;3.11;80.19;99323.98;1714589;81;20400;-35
2021/03/18 11:40:12;;;;;;;;;;;;;;;3.16;79.96;99325.34;1738292;81;20415;-35
2021/03/18 11:42:44;;;;;;;;;;;;;;;3.22;79.80;99321.55;1742374;81;20254;-34
2021/03/18 11:45:21;;;;;;;;;;;;;;;3.26;79.14;99322.48;1740103;81;20179;-34
2021/03/18 11:47:53;;;;;;;;;;;;;;;3.32;79.36;99316.09;1742127;81;20150;-39
2021/03/18 11:50:27;;;;;;;;;;;;;;;3.42;78.81;99314.05;1740039;81;20213;-35
2021/03/18 11:52:57;;;;;;;;;;;;;;;3.53;78.89;99315.05;1694425;81;20145;-35
2021/03/18 11:55:26;;;;;;;;;;;;;;;3.60;78.11;99313.02;1746942;81;20453;-39
2021/03/18 11:57:58;;;;;;;;;;;;;;;3.61;78.13;99319.05;1741797;81;20215;-35
2021/03/18 12:00:37;;;;;;;;;;;;;;;3.56;77.74;99320.28;1744571;81;20322;-40
2021/03/18 12:03:16;;;;;;;;;;;;;;;3.53;77.64;99324.54;1740950;81;20209;-35
2021/03/18 12:05:45;;;;;;;;;;;;;;;3.58;78.60;99322.45;1741372;81;20314;-36
2021/03/18 12:08:13;;;;;;;;;;;;;;;3.71;77.89;99319.19;1740982;81;20177;-35
2021/03/18 12:10:45;;;;;;;;;;;;;;;3.77;77.11;99319.69;1739624;81;20481;-34
2021/03/18 12:13:12;;;;;;;;;;;;;;;3.81;76.46;99317.98;1740959;81;20571;-35
2021/03/18 12:15:41;;;;;;;;;;;;;;;3.89;76.68;99315.95;1738092;81;20194;-35
2021/03/18 12:18:09;;;;;;;;;;;;;;;4.07;76.62;99308.80;1729934;81;20170;-35
2021/03/18 12:20:37;;;;;;;;;;;;;;;4.21;76.20;99313.68;1726320;81;20395;-35
2021/03/18 12:23:05;;;;;;;;;;;;;;;4.25;74.67;99313.30;1729370;81;20165;-35
2021/03/18 12:25:32;;;;;;;;;;;;;;;4.22;74.84;99320.59;1728333;81;20219;-35
2021/03/18 12:28:00;;;;;;;;;;;;;;;4.24;74.14;99318.91;1729096;81;20474;-35
2021/03/18 12:30:27;;;;;;;;;;;;;;;4.31;74.45;99317.66;1727416;82;20402;-35
2021/03/18 12:32:55;;;;;;;;;;;;;;;4.36;74.68;99319.88;1730672;81;20448;-39
2021/03/18 12:35:22;;;;;;;;;;;;;;;4.40;74.66;99326.38;1731910;81;20169;-39
2021/03/18 12:37:50;;;;;;;;;;;;;;;4.39;73.97;99328.52;1730473;82;20447;-39
2021/03/18 12:40:18;;;;;;;;;;;;;;;4.30;74.53;99325.86;1678600;83;20369;-39
2021/03/18 12:42:46;;;;;;;;;;;;;;;4.24;75.32;99333.14;1669943;85;20182;-34
2021/03/18 12:45:15;;;;;;;;;;;;;;;4.19;74.60;99332.66;1668905;85;20171;-34
2021/03/18 12:47:42;;;;;;;;;;;;;;;4.10;75.04;99333.41;1735633;82;20172;-34
2021/03/18 12:50:14;;;;;;;;;;;;;;;4.04;75.11;99335.94;1729386;82;20483;-35
2021/03/18 12:52:43;;;;;;;;;;;;;;;4.04;75.93;99335.94;1734755;82;20197;-36
2021/03/18 12:55:15;;;;;;;;;;;;;;;4.06;76.11;99338.14;1678695;84;20199;-35
2021/03/18 12:57:45;;;;;;;;;;;;;;;4.04;75.72;99343.70;1674112;85;20460;-34
2021/03/18 13:00:15;;;;;;;;;;;;;;;4.08;75.45;99340.73;1735716;82;20441;-34
2021/03/18 13:02:43;;;;;;;;;;;;;;;4.08;74.85;99344.19;1728753;81;20575;-33
2021/03/18 13:05:11;;;;;;;;;;;;;;;4.07;75.09;99342.88;1728234;82;20168;-34
2021/03/18 13:07:39;;;;;;;;;;;;;;;4.07;74.52;99343.75;1734815;82;20175;-35
2021/03/18 13:10:08;;;;;;;;;;;;;;;4.01;74.22;99341.09;1732835;82;20548;-39
2021/03/18 13:12:36;;;;;;;;;;;;;;;3.96;74.33;99344.92;1728344;82;20199;-35
2021/03/18 13:15:05;;;;;;;;;;;;;;;3.93;74.81;99350.05;1729767;82;20520;-35
2021/03/18 13:17:32;;;;;;;;;;;;;;;3.93;74.88;99353.92;1735427;82;20158;-35
2021/03/18 13:20:03;;;;;;;;;;;;;;;3.95;74.55;99348.37;1701455;84;20196;-35
2021/03/18 13:22:31;;;;;;;;;;;;;;;3.96;74.42;99354.41;1694519;84;20419;-39
2021/03/18 13:24:59;;;;;;;;;;;;;;;3.93;74.30;99348.75;1690825;84;20166;-39
2021/03/18 13:27:26;;;;;;;;;;;;;;;3.90;74.75;99354.34;1704208;83;20182;-39
2021/03/18 13:29:54;;;;;;;;;;;;;;;3.88;74.60;99365.94;1699775;82;20529;-35
2021/03/18 13:32:21;;;;;;;;;;;;;;;3.87;75.04;99365.93;1700698;84;20497;-39
2021/03/18 13:34:50;;;;;;;;;;;;;;;3.86;74.87;99366.78;1695021;84;20200;-39
2021/03/18 13:37:17;;;;;;;;;;;;;;;3.86;74.74;99366.78;1689137;83;20166;-39
2021/03/18 13:39:45;;;;;;;;;;;;;;;3.82;74.99;99361.12;1748526;82;20483;-35
2021/03/18 13:42:13;;;;;;;;;;;;;;;3.79;75.30;99364.98;1723407;82;20543;-36
2021/03/18 13:44:41;;;;;;;;;;;;;;;3.80;75.34;99363.70;1735814;82;20170;-34
2021/03/18 13:47:09;;;;;;;;;;;;;;;3.81;75.32;99362.84;1725454;82;20460;-35
2021/03/18 13:49:37;;;;;;;;;;;;;;;3.85;75.62;99362.03;1739421;81;20459;-35
2021/03/18 13:52:05;;;;;;;;;;;;;;;3.92;75.57;99357.38;1753907;81;20453;-39
2021/03/18 13:54:34;;;;;;;;;;;;;;;3.98;75.20;99356.14;1746107;82;20179;-39
2021/03/18 13:57:02;;;;;;;;;;;;;;;4.03;74.76;99351.45;1750928;82;20181;-35
2021/03/18 13:59:29;;;;;;;;;;;;;;;4.04;74.33;99350.59;1738297;82;20165;-34
2021/03/18 14:01:59;;;;;;;;;;;;;;;4.00;73.98;99357.05;1735545;82;20300;-35
